sensor_id;sensor_type;location;lat;lon;timestamp;temperature;humidity
34726;DHT22;20951;50.818;4.344;2023-06-24T00:00:03;21.20;99.90
34726;DHT22;20951;50.818;4.344;2023-06-24T00:02:33;21.20;99.90
34726;DHT22;20951;50.818;4.344;2023-06-24T00:04:59;21.20;99.90
34726;DHT22;20951;50.818;4.344;2023-06-24T00:07:28;21.10;99.90
34726;DHT22;20951;50.818;4.344;2023-06-24T00:09:54;21.10;99.90
34726;DHT22;20951;50.818;4.344;2023-06-24T00:12:23;21.00;99.90
34726;DHT22;20951;50.818;4.344;2023-06-24T00:14:50;21.10;99.90
34726;DHT22;20951;50.818;4.344;2023-06-24T00:17:16;21.10;99.90
34726;DHT22;20951;50.818;4.344;2023-06-24T00:19:45;21.10;99.90
34726;DHT22;20951;50.818;4.344;2023-06-24T00:22:11;21.00;99.90
34726;DHT22;20951;50.818;4.344;2023-06-24T00:24:37;21.00;99.90
34726;DHT22;20951;50.818;4.344;2023-06-24T00:27:03;21.00;99.90
34726;DHT22;20951;50.818;4.344;2023-06-24T00:29:28;21.00;99.90
34726;DHT22;20951;50.818;4.344;2023-06-24T00:31:54;21.00;99.90
34726;DHT22;20951;50.818;4.344;2023-06-24T00:34:20;20.90;99.90
34726;DHT22;20951;50.818;4.344;2023-06-24T00:36:53;21.00;99.90
34726;DHT22;20951;50.818;4.344;2023-06-24T00:39:20;20.90;99.90
34726;DHT22;20951;50.818;4.344;2023-06-24T00:41:46;20.90;99.90
34726;DHT22;20951;50.818;4.344;2023-06-24T00:44:12;20.80;99.90
34726;DHT22;20951;50.818;4.344;2023-06-24T00:46:40;20.70;99.90
34726;DHT22;20951;50.818;4.344;2023-06-24T00:49:06;20.70;99.90
34726;DHT22;20951;50.818;4.344;2023-06-24T00:51:35;20.70;99.90
34726;DHT22;20951;50.818;4.344;2023-06-24T00:54:01;20.80;99.90
34726;DHT22;20951;50.818;4.344;2023-06-24T00:56:36;20.60;99.90
34726;DHT22;20951;50.818;4.344;2023-06-24T00:59:15;20.30;99.90
34726;DHT22;20951;50.818;4.344;2023-06-24T01:01:41;20.10;99.90
34726;DHT22;20951;50.818;4.344;2023-06-24T01:04:08;20.10;99.90
34726;DHT22;20951;50.818;4.344;2023-06-24T01:06:38;20.10;99.90
34726;DHT22;20951;50.818;4.344;2023-06-24T01:09:09;20.10;99.90
34726;DHT22;20951;50.818;4.344;2023-06-24T01:11:35;20.10;99.90
34726;DHT22;20951;50.818;4.344;2023-06-24T01:14:00;20.20;99.90
34726;DHT22;20951;50.818;4.344;2023-06-24T01:16:37;20.10;99.90
34726;DHT22;20951;50.818;4.344;2023-06-24T01:25:02;19.90;99.90
34726;DHT22;20951;50.818;4.344;2023-06-24T01:27:52;19.80;99.90
34726;DHT22;20951;50.818;4.344;2023-06-24T01:30:31;19.70;99.90
34726;DHT22;20951;50.818;4.344;2023-06-24T01:33:13;19.60;99.90
34726;DHT22;20951;50.818;4.344;2023-06-24T01:35:43;19.50;99.90
34726;DHT22;20951;50.818;4.344;2023-06-24T01:38:15;19.50;99.90
34726;DHT22;20951;50.818;4.344;2023-06-24T01:40:44;19.50;99.90
34726;DHT22;20951;50.818;4.344;2023-06-24T01:43:14;19.50;99.90
34726;DHT22;20951;50.818;4.344;2023-06-24T01:45:43;19.50;99.90
34726;DHT22;20951;50.818;4.344;2023-06-24T01:48:36;19.50;99.90
34726;DHT22;20951;50.818;4.344;2023-06-24T01:51:19;19.50;99.90
34726;DHT22;20951;50.818;4.344;2023-06-24T01:53:52;19.50;99.90
34726;DHT22;20951;50.818;4.344;2023-06-24T01:56:22;19.40;99.90
34726;DHT22;20951;50.818;4.344;2023-06-24T01:58:53;19.30;99.90
34726;DHT22;20951;50.818;4.344;2023-06-24T02:01:28;19.30;99.90
34726;DHT22;20951;50.818;4.344;2023-06-24T02:04:01;19.30;99.90
34726;DHT22;20951;50.818;4.344;2023-06-24T02:06:31;19.20;99.90
34726;DHT22;20951;50.818;4.344;2023-06-24T02:09:01;19.20;99.90
34726;DHT22;20951;50.818;4.344;2023-06-24T02:11:35;19.20;99.90
34726;DHT22;20951;50.818;4.344;2023-06-24T02:14:04;19.20;99.90
34726;DHT22;20951;50.818;4.344;2023-06-24T02:16:33;19.10;99.90
34726;DHT22;20951;50.818;4.344;2023-06-24T02:19:10;19.20;99.90
34726;DHT22;20951;50.818;4.344;2023-06-24T02:21:37;19.30;99.90
34726;DHT22;20951;50.818;4.344;2023-06-24T02:24:06;19.30;99.90
34726;DHT22;20951;50.818;4.344;2023-06-24T02:26:32;19.00;99.90
34726;DHT22;20951;50.818;4.344;2023-06-24T02:29:01;18.90;99.90
34726;DHT22;20951;50.818;4.344;2023-06-24T02:31:27;18.90;99.90
34726;DHT22;20951;50.818;4.344;2023-06-24T02:33:53;18.80;99.90
34726;DHT22;20951;50.818;4.344;2023-06-24T02:36:21;18.90;99.90
34726;DHT22;20951;50.818;4.344;2023-06-24T02:38:56;19.00;99.90
34726;DHT22;20951;50.818;4.344;2023-06-24T02:41:25;18.90;99.90
34726;DHT22;20951;50.818;4.344;2023-06-24T02:43:54;18.90;99.90
34726;DHT22;20951;50.818;4.344;2023-06-24T02:46:21;18.90;99.90
34726;DHT22;20951;50.818;4.344;2023-06-24T02:48:48;18.80;99.90
34726;DHT22;20951;50.818;4.344;2023-06-24T02:51:15;18.70;99.90
34726;DHT22;20951;50.818;4.344;2023-06-24T02:53:42;18.60;99.90
34726;DHT22;20951;50.818;4.344;2023-06-24T02:56:09;18.60;99.90
34726;DHT22;20951;50.818;4.344;2023-06-24T02:58:44;18.60;99.90
34726;DHT22;20951;50.818;4.344;2023-06-24T03:01:11;18.50;99.90
34726;DHT22;20951;50.818;4.344;2023-06-24T03:03:40;18.50;99.90
34726;DHT22;20951;50.818;4.344;2023-06-24T03:06:09;18.40;99.90
34726;DHT22;20951;50.818;4.344;2023-06-24T03:08:38;18.30;99.90
34726;DHT22;20951;50.818;4.344;2023-06-24T03:11:04;18.30;99.90
34726;DHT22;20951;50.818;4.344;2023-06-24T03:13:30;18.30;99.90
34726;DHT22;20951;50.818;4.344;2023-06-24T03:15:58;18.30;99.90
34726;DHT22;20951;50.818;4.344;2023-06-24T03:18:24;18.30;99.90
34726;DHT22;20951;50.818;4.344;2023-06-24T03:20:50;18.20;99.90
34726;DHT22;20951;50.818;4.344;2023-06-24T03:23:18;18.10;99.90
34726;DHT22;20951;50.818;4.344;2023-06-24T03:25:46;18.00;99.90
34726;DHT22;20951;50.818;4.344;2023-06-24T03:28:15;18.00;99.90
34726;DHT22;20951;50.818;4.344;2023-06-24T03:30:40;18.00;99.90
34726;DHT22;20951;50.818;4.344;2023-06-24T03:33:16;17.90;99.90
34726;DHT22;20951;50.818;4.344;2023-06-24T03:35:53;18.00;99.90
34726;DHT22;20951;50.818;4.344;2023-06-24T03:38:21;17.80;99.90
34726;DHT22;20951;50.818;4.344;2023-06-24T03:40:57;17.80;99.90
34726;DHT22;20951;50.818;4.344;2023-06-24T03:43:31;17.70;99.90
34726;DHT22;20951;50.818;4.344;2023-06-24T03:45:56;17.80;99.90
34726;DHT22;20951;50.818;4.344;2023-06-24T03:48:22;17.80;99.90
34726;DHT22;20951;50.818;4.344;2023-06-24T03:50:51;17.80;99.90
34726;DHT22;20951;50.818;4.344;2023-06-24T03:53:17;17.90;99.90
34726;DHT22;20951;50.818;4.344;2023-06-24T03:55:43;17.80;99.90
34726;DHT22;20951;50.818;4.344;2023-06-24T03:58:08;17.90;99.90
34726;DHT22;20951;50.818;4.344;2023-06-24T04:00:37;17.90;99.90
34726;DHT22;20951;50.818;4.344;2023-06-24T04:03:16;18.00;99.90
34726;DHT22;20951;50.818;4.344;2023-06-24T04:05:47;17.90;99.90
34726;DHT22;20951;50.818;4.344;2023-06-24T04:08:13;17.80;99.90
34726;DHT22;20951;50.818;4.344;2023-06-24T04:10:39;17.80;99.90
34726;DHT22;20951;50.818;4.344;2023-06-24T04:13:08;17.80;99.90
34726;DHT22;20951;50.818;4.344;2023-06-24T04:15:44;17.80;99.90
34726;DHT22;20951;50.818;4.344;2023-06-24T04:18:10;17.80;99.90
34726;DHT22;20951;50.818;4.344;2023-06-24T04:20:36;17.80;99.90
34726;DHT22;20951;50.818;4.344;2023-06-24T04:23:05;17.90;99.90
34726;DHT22;20951;50.818;4.344;2023-06-24T04:25:31;18.00;99.90
34726;DHT22;20951;50.818;4.344;2023-06-24T04:27:57;18.10;99.90
34726;DHT22;20951;50.818;4.344;2023-06-24T04:30:23;18.10;99.90
34726;DHT22;20951;50.818;4.344;2023-06-24T04:32:51;18.20;99.90
34726;DHT22;20951;50.818;4.344;2023-06-24T04:35:17;18.40;99.90
34726;DHT22;20951;50.818;4.344;2023-06-24T04:37:46;18.30;99.90
34726;DHT22;20951;50.818;4.344;2023-06-24T04:40:12;18.20;99.90
34726;DHT22;20951;50.818;4.344;2023-06-24T04:42:45;18.30;99.90
34726;DHT22;20951;50.818;4.344;2023-06-24T04:45:14;18.40;99.90
34726;DHT22;20951;50.818;4.344;2023-06-24T04:47:42;18.30;99.90
34726;DHT22;20951;50.818;4.344;2023-06-24T04:50:11;18.40;99.90
34726;DHT22;20951;50.818;4.344;2023-06-24T04:52:52;18.20;99.90
34726;DHT22;20951;50.818;4.344;2023-06-24T04:55:27;18.10;99.90
34726;DHT22;20951;50.818;4.344;2023-06-24T04:57:52;18.20;99.90
34726;DHT22;20951;50.818;4.344;2023-06-24T05:00:21;18.30;99.90
34726;DHT22;20951;50.818;4.344;2023-06-24T05:02:50;18.40;99.90
34726;DHT22;20951;50.818;4.344;2023-06-24T05:05:21;18.30;99.90
34726;DHT22;20951;50.818;4.344;2023-06-24T05:07:50;18.20;99.90
34726;DHT22;20951;50.818;4.344;2023-06-24T05:10:16;18.20;99.90
34726;DHT22;20951;50.818;4.344;2023-06-24T05:12:41;18.20;99.90
34726;DHT22;20951;50.818;4.344;2023-06-24T05:15:15;18.30;99.90
34726;DHT22;20951;50.818;4.344;2023-06-24T05:17:41;18.20;99.90
34726;DHT22;20951;50.818;4.344;2023-06-24T05:20:10;18.20;99.90
34726;DHT22;20951;50.818;4.344;2023-06-24T05:22:43;18.40;99.90
34726;DHT22;20951;50.818;4.344;2023-06-24T05:25:11;18.30;99.90
34726;DHT22;20951;50.818;4.344;2023-06-24T05:27:37;18.40;99.90
34726;DHT22;20951;50.818;4.344;2023-06-24T05:30:03;18.40;99.90
34726;DHT22;20951;50.818;4.344;2023-06-24T05:32:32;18.40;99.90
34726;DHT22;20951;50.818;4.344;2023-06-24T05:34:58;18.40;99.90
34726;DHT22;20951;50.818;4.344;2023-06-24T05:37:29;18.50;99.90
34726;DHT22;20951;50.818;4.344;2023-06-24T05:39:57;18.50;99.90
34726;DHT22;20951;50.818;4.344;2023-06-24T05:42:34;18.60;99.90
34726;DHT22;20951;50.818;4.344;2023-06-24T05:45:00;18.70;99.90
34726;DHT22;20951;50.818;4.344;2023-06-24T05:47:28;18.70;99.90
34726;DHT22;20951;50.818;4.344;2023-06-24T05:49:54;18.60;99.90
34726;DHT22;20951;50.818;4.344;2023-06-24T05:52:20;18.80;99.90
34726;DHT22;20951;50.818;4.344;2023-06-24T05:54:45;18.80;99.90
34726;DHT22;20951;50.818;4.344;2023-06-24T05:57:11;18.90;99.90
34726;DHT22;20951;50.818;4.344;2023-06-24T05:59:48;18.90;99.90
34726;DHT22;20951;50.818;4.344;2023-06-24T06:02:13;18.90;99.90
34726;DHT22;20951;50.818;4.344;2023-06-24T06:04:39;19.10;99.90
34726;DHT22;20951;50.818;4.344;2023-06-24T06:07:14;19.20;99.90
34726;DHT22;20951;50.818;4.344;2023-06-24T06:09:42;19.30;99.90
34726;DHT22;20951;50.818;4.344;2023-06-24T06:12:08;19.40;99.90
34726;DHT22;20951;50.818;4.344;2023-06-24T06:14:34;19.40;99.90
34726;DHT22;20951;50.818;4.344;2023-06-24T06:17:03;19.50;99.90
34726;DHT22;20951;50.818;4.344;2023-06-24T06:19:31;19.70;99.90
34726;DHT22;20951;50.818;4.344;2023-06-24T06:22:08;19.80;99.90
34726;DHT22;20951;50.818;4.344;2023-06-24T06:24:34;20.10;99.90
34726;DHT22;20951;50.818;4.344;2023-06-24T06:27:02;20.90;99.90
34726;DHT22;20951;50.818;4.344;2023-06-24T06:29:28;22.40;99.90
34726;DHT22;20951;50.818;4.344;2023-06-24T06:31:56;23.40;99.90
34726;DHT22;20951;50.818;4.344;2023-06-24T06:34:22;24.80;99.90
34726;DHT22;20951;50.818;4.344;2023-06-24T06:36:48;26.70;99.90
34726;DHT22;20951;50.818;4.344;2023-06-24T06:39:17;28.80;99.90
34726;DHT22;20951;50.818;4.344;2023-06-24T06:41:43;30.20;99.00
34726;DHT22;20951;50.818;4.344;2023-06-24T06:44:08;31.20;95.90
34726;DHT22;20951;50.818;4.344;2023-06-24T06:46:34;30.00;96.30
34726;DHT22;20951;50.818;4.344;2023-06-24T06:49:00;31.00;95.60
34726;DHT22;20951;50.818;4.344;2023-06-24T06:51:26;31.20;93.70
34726;DHT22;20951;50.818;4.344;2023-06-24T06:53:55;31.40;93.80
34726;DHT22;20951;50.818;4.344;2023-06-24T06:56:24;32.30;91.60
34726;DHT22;20951;50.818;4.344;2023-06-24T06:58:57;31.00;92.00
34726;DHT22;20951;50.818;4.344;2023-06-24T07:01:23;32.30;91.60
34726;DHT22;20951;50.818;4.344;2023-06-24T07:03:50;33.00;89.90
34726;DHT22;20951;50.818;4.344;2023-06-24T07:06:23;32.70;89.50
34726;DHT22;20951;50.818;4.344;2023-06-24T07:08:49;32.70;87.60
34726;DHT22;20951;50.818;4.344;2023-06-24T07:11:15;31.30;90.40
34726;DHT22;20951;50.818;4.344;2023-06-24T07:13:48;31.60;91.00
34726;DHT22;20951;50.818;4.344;2023-06-24T07:16:17;32.20;89.90
34726;DHT22;20951;50.818;4.344;2023-06-24T07:18:52;31.70;90.40
34726;DHT22;20951;50.818;4.344;2023-06-24T07:21:19;33.40;88.50
34726;DHT22;20951;50.818;4.344;2023-06-24T07:23:47;33.40;84.80
34726;DHT22;20951;50.818;4.344;2023-06-24T07:26:13;31.90;87.80
34726;DHT22;20951;50.818;4.344;2023-06-24T07:28:39;32.60;86.50
34726;DHT22;20951;50.818;4.344;2023-06-24T07:31:05;32.70;85.40
34726;DHT22;20951;50.818;4.344;2023-06-24T07:33:31;31.50;87.40
34726;DHT22;20951;50.818;4.344;2023-06-24T07:35:59;31.30;87.90
34726;DHT22;20951;50.818;4.344;2023-06-24T07:38:25;30.80;90.30
34726;DHT22;20951;50.818;4.344;2023-06-24T07:40:50;31.70;87.80
34726;DHT22;20951;50.818;4.344;2023-06-24T07:43:19;32.10;86.00
34726;DHT22;20951;50.818;4.344;2023-06-24T07:45:45;31.40;87.60
34726;DHT22;20951;50.818;4.344;2023-06-24T07:48:14;31.80;86.60
34726;DHT22;20951;50.818;4.344;2023-06-24T07:50:40;32.70;85.10
34726;DHT22;20951;50.818;4.344;2023-06-24T07:53:06;32.40;85.80
34726;DHT22;20951;50.818;4.344;2023-06-24T07:55:32;33.00;83.70
34726;DHT22;20951;50.818;4.344;2023-06-24T07:58:00;33.20;82.80
34726;DHT22;20951;50.818;4.344;2023-06-24T08:00:25;33.80;83.40
34726;DHT22;20951;50.818;4.344;2023-06-24T08:02:51;34.30;79.20
34726;DHT22;20951;50.818;4.344;2023-06-24T08:05:17;34.10;77.70
34726;DHT22;20951;50.818;4.344;2023-06-24T08:07:44;34.80;78.50
34726;DHT22;20951;50.818;4.344;2023-06-24T08:10:12;36.00;76.20
34726;DHT22;20951;50.818;4.344;2023-06-24T08:12:49;36.60;74.30
34726;DHT22;20951;50.818;4.344;2023-06-24T08:15:15;36.10;73.60
34726;DHT22;20951;50.818;4.344;2023-06-24T08:17:40;37.00;73.10
34726;DHT22;20951;50.818;4.344;2023-06-24T08:20:06;36.00;71.10
34726;DHT22;20951;50.818;4.344;2023-06-24T08:22:34;35.60;71.00
34726;DHT22;20951;50.818;4.344;2023-06-24T08:25:04;35.60;71.70
34726;DHT22;20951;50.818;4.344;2023-06-24T08:27:40;35.90;71.90
34726;DHT22;20951;50.818;4.344;2023-06-24T08:30:07;35.40;70.70
34726;DHT22;20951;50.818;4.344;2023-06-24T08:32:36;35.00;71.30
34726;DHT22;20951;50.818;4.344;2023-06-24T08:35:01;34.70;72.70
34726;DHT22;20951;50.818;4.344;2023-06-24T08:37:27;36.30;70.60
34726;DHT22;20951;50.818;4.344;2023-06-24T08:39:53;36.70;68.90
34726;DHT22;20951;50.818;4.344;2023-06-24T08:42:19;37.10;66.30
34726;DHT22;20951;50.818;4.344;2023-06-24T08:44:45;36.90;66.50
34726;DHT22;20951;50.818;4.344;2023-06-24T08:47:11;36.20;69.10
34726;DHT22;20951;50.818;4.344;2023-06-24T08:49:47;37.10;68.00
34726;DHT22;20951;50.818;4.344;2023-06-24T08:52:16;36.50;66.60
34726;DHT22;20951;50.818;4.344;2023-06-24T08:54:46;34.90;66.60
34726;DHT22;20951;50.818;4.344;2023-06-24T08:57:12;34.50;69.80
34726;DHT22;20951;50.818;4.344;2023-06-24T08:59:41;35.30;69.80
34726;DHT22;20951;50.818;4.344;2023-06-24T09:02:07;35.60;69.40
34726;DHT22;20951;50.818;4.344;2023-06-24T09:04:36;36.30;69.40
34726;DHT22;20951;50.818;4.344;2023-06-24T09:07:05;36.80;67.90
34726;DHT22;20951;50.818;4.344;2023-06-24T09:09:31;36.30;67.40
34726;DHT22;20951;50.818;4.344;2023-06-24T09:12:00;37.40;66.30
34726;DHT22;20951;50.818;4.344;2023-06-24T09:14:28;36.50;66.60
34726;DHT22;20951;50.818;4.344;2023-06-24T09:16:58;37.70;67.20
34726;DHT22;20951;50.818;4.344;2023-06-24T09:19:27;38.50;64.60
34726;DHT22;20951;50.818;4.344;2023-06-24T09:22:00;37.80;62.10
34726;DHT22;20951;50.818;4.344;2023-06-24T09:24:33;37.50;63.40
34726;DHT22;20951;50.818;4.344;2023-06-24T09:26:59;38.20;62.10
34726;DHT22;20951;50.818;4.344;2023-06-24T09:29:32;37.50;62.20
34726;DHT22;20951;50.818;4.344;2023-06-24T09:31:58;37.70;63.00
34726;DHT22;20951;50.818;4.344;2023-06-24T09:34:28;36.80;63.10
34726;DHT22;20951;50.818;4.344;2023-06-24T09:36:57;36.40;64.50
34726;DHT22;20951;50.818;4.344;2023-06-24T09:39:24;36.70;63.60
34726;DHT22;20951;50.818;4.344;2023-06-24T09:41:57;36.20;63.50
34726;DHT22;20951;50.818;4.344;2023-06-24T09:44:25;36.60;64.80
34726;DHT22;20951;50.818;4.344;2023-06-24T09:46:51;37.20;63.30
34726;DHT22;20951;50.818;4.344;2023-06-24T09:49:24;36.30;64.20
34726;DHT22;20951;50.818;4.344;2023-06-24T09:51:55;35.90;64.90
34726;DHT22;20951;50.818;4.344;2023-06-24T09:54:22;34.20;67.00
34726;DHT22;20951;50.818;4.344;2023-06-24T09:57:00;35.00;65.90
34726;DHT22;20951;50.818;4.344;2023-06-24T09:59:40;35.30;64.10
34726;DHT22;20951;50.818;4.344;2023-06-24T10:02:13;35.80;63.60
34726;DHT22;20951;50.818;4.344;2023-06-24T10:04:51;35.30;64.50
34726;DHT22;20951;50.818;4.344;2023-06-24T10:07:20;36.20;61.70
34726;DHT22;20951;50.818;4.344;2023-06-24T10:09:49;35.30;60.60
34726;DHT22;20951;50.818;4.344;2023-06-24T10:12:22;34.30;63.70
34726;DHT22;20951;50.818;4.344;2023-06-24T10:14:59;35.50;63.90
34726;DHT22;20951;50.818;4.344;2023-06-24T10:17:28;36.90;62.40
34726;DHT22;20951;50.818;4.344;2023-06-24T10:19:57;36.10;61.00
34726;DHT22;20951;50.818;4.344;2023-06-24T10:22:30;36.20;63.20
34726;DHT22;20951;50.818;4.344;2023-06-24T10:25:00;35.30;62.70
34726;DHT22;20951;50.818;4.344;2023-06-24T10:27:26;35.80;65.00
34726;DHT22;20951;50.818;4.344;2023-06-24T10:29:54;35.60;61.80
34726;DHT22;20951;50.818;4.344;2023-06-24T10:32:24;35.70;61.80
34726;DHT22;20951;50.818;4.344;2023-06-24T10:34:59;35.30;63.90
34726;DHT22;20951;50.818;4.344;2023-06-24T10:37:34;35.90;64.50
34726;DHT22;20951;50.818;4.344;2023-06-24T10:40:08;35.60;63.70
34726;DHT22;20951;50.818;4.344;2023-06-24T10:42:44;35.10;63.70
34726;DHT22;20951;50.818;4.344;2023-06-24T10:45:13;33.90;65.00
34726;DHT22;20951;50.818;4.344;2023-06-24T10:50:06;34.50;64.10
34726;DHT22;20951;50.818;4.344;2023-06-24T10:52:44;34.50;64.30
34726;DHT22;20951;50.818;4.344;2023-06-24T10:55:24;34.70;64.50
34726;DHT22;20951;50.818;4.344;2023-06-24T10:57:53;35.20;64.10
34726;DHT22;20951;50.818;4.344;2023-06-24T11:00:21;35.40;64.10
34726;DHT22;20951;50.818;4.344;2023-06-24T11:02:54;34.80;65.00
34726;DHT22;20951;50.818;4.344;2023-06-24T11:05:20;35.60;64.50
34726;DHT22;20951;50.818;4.344;2023-06-24T11:07:56;36.30;62.40
34726;DHT22;20951;50.818;4.344;2023-06-24T11:10:25;36.50;62.20
34726;DHT22;20951;50.818;4.344;2023-06-24T11:12:54;36.00;59.50
34726;DHT22;20951;50.818;4.344;2023-06-24T11:15:23;35.70;61.40
34726;DHT22;20951;50.818;4.344;2023-06-24T11:17:52;35.60;61.80
34726;DHT22;20951;50.818;4.344;2023-06-24T11:20:21;35.50;61.10
34726;DHT22;20951;50.818;4.344;2023-06-24T11:22:47;34.90;62.30
34726;DHT22;20951;50.818;4.344;2023-06-24T11:25:19;35.10;62.40
34726;DHT22;20951;50.818;4.344;2023-06-24T11:27:47;36.00;62.00
34726;DHT22;20951;50.818;4.344;2023-06-24T11:30:23;36.60;62.30
34726;DHT22;20951;50.818;4.344;2023-06-24T11:32:59;36.80;61.90
34726;DHT22;20951;50.818;4.344;2023-06-24T11:35:27;36.60;62.40
34726;DHT22;20951;50.818;4.344;2023-06-24T11:38:04;36.90;62.30
34726;DHT22;20951;50.818;4.344;2023-06-24T11:40:33;37.00;61.70
34726;DHT22;20951;50.818;4.344;2023-06-24T11:43:07;36.10;62.90
34726;DHT22;20951;50.818;4.344;2023-06-24T11:45:36;36.20;62.90
34726;DHT22;20951;50.818;4.344;2023-06-24T11:48:03;36.50;62.40
34726;DHT22;20951;50.818;4.344;2023-06-24T11:50:33;35.50;61.70
34726;DHT22;20951;50.818;4.344;2023-06-24T11:53:01;35.30;64.00
34726;DHT22;20951;50.818;4.344;2023-06-24T11:55:31;36.10;62.80
34726;DHT22;20951;50.818;4.344;2023-06-24T11:58:04;36.30;61.20
34726;DHT22;20951;50.818;4.344;2023-06-24T12:00:40;35.90;59.50
34726;DHT22;20951;50.818;4.344;2023-06-24T12:03:22;36.40;59.40
34726;DHT22;20951;50.818;4.344;2023-06-24T12:05:59;36.60;61.20
34726;DHT22;20951;50.818;4.344;2023-06-24T12:08:25;36.90;61.70
34726;DHT22;20951;50.818;4.344;2023-06-24T12:10:53;36.40;61.10
34726;DHT22;20951;50.818;4.344;2023-06-24T12:13:22;37.60;61.20
34726;DHT22;20951;50.818;4.344;2023-06-24T12:15:57;37.50;60.40
34726;DHT22;20951;50.818;4.344;2023-06-24T12:18:33;37.20;60.10
34726;DHT22;20951;50.818;4.344;2023-06-24T12:20:59;37.10;61.40
34726;DHT22;20951;50.818;4.344;2023-06-24T12:23:25;36.60;60.40
34726;DHT22;20951;50.818;4.344;2023-06-24T12:25:51;36.10;61.60
34726;DHT22;20951;50.818;4.344;2023-06-24T12:28:17;36.40;62.80
34726;DHT22;20951;50.818;4.344;2023-06-24T12:30:42;38.00;61.20
34726;DHT22;20951;50.818;4.344;2023-06-24T12:33:08;38.10;59.10
34726;DHT22;20951;50.818;4.344;2023-06-24T12:35:44;38.10;59.50
34726;DHT22;20951;50.818;4.344;2023-06-24T12:38:19;38.00;59.30
34726;DHT22;20951;50.818;4.344;2023-06-24T12:40:48;39.60;58.70
34726;DHT22;20951;50.818;4.344;2023-06-24T12:43:17;39.70;57.80
34726;DHT22;20951;50.818;4.344;2023-06-24T12:45:43;40.30;57.50
34726;DHT22;20951;50.818;4.344;2023-06-24T12:48:13;42.00;56.10
34726;DHT22;20951;50.818;4.344;2023-06-24T12:50:39;43.00;55.00
34726;DHT22;20951;50.818;4.344;2023-06-24T12:53:05;41.70;54.70
34726;DHT22;20951;50.818;4.344;2023-06-24T12:55:41;40.50;55.50
34726;DHT22;20951;50.818;4.344;2023-06-24T12:58:07;41.60;55.20
34726;DHT22;20951;50.818;4.344;2023-06-24T13:00:43;41.20;54.70
34726;DHT22;20951;50.818;4.344;2023-06-24T13:03:20;40.30;55.30
34726;DHT22;20951;50.818;4.344;2023-06-24T13:05:57;39.80;55.80
34726;DHT22;20951;50.818;4.344;2023-06-24T13:08:25;40.60;55.60
34726;DHT22;20951;50.818;4.344;2023-06-24T13:10:51;41.40;55.20
34726;DHT22;20951;50.818;4.344;2023-06-24T13:13:19;40.80;55.30
34726;DHT22;20951;50.818;4.344;2023-06-24T13:15:47;39.80;56.90
34726;DHT22;20951;50.818;4.344;2023-06-24T13:18:14;40.50;55.40
34726;DHT22;20951;50.818;4.344;2023-06-24T13:20:53;40.90;54.60
34726;DHT22;20951;50.818;4.344;2023-06-24T13:23:19;40.90;53.90
34726;DHT22;20951;50.818;4.344;2023-06-24T13:25:55;40.70;53.50
34726;DHT22;20951;50.818;4.344;2023-06-24T13:28:23;41.00;53.50
34726;DHT22;20951;50.818;4.344;2023-06-24T13:30:59;40.60;54.90
34726;DHT22;20951;50.818;4.344;2023-06-24T13:33:42;39.40;55.20
34726;DHT22;20951;50.818;4.344;2023-06-24T13:36:35;39.10;56.10
34726;DHT22;20951;50.818;4.344;2023-06-24T13:39:06;39.80;54.40
34726;DHT22;20951;50.818;4.344;2023-06-24T13:41:44;39.00;54.20
34726;DHT22;20951;50.818;4.344;2023-06-24T13:44:20;38.20;55.10
34726;DHT22;20951;50.818;4.344;2023-06-24T13:46:56;38.10;56.60
34726;DHT22;20951;50.818;4.344;2023-06-24T13:49:31;39.00;56.90
34726;DHT22;20951;50.818;4.344;2023-06-24T13:52:07;38.20;56.10
34726;DHT22;20951;50.818;4.344;2023-06-24T13:54:33;37.20;56.70
34726;DHT22;20951;50.818;4.344;2023-06-24T13:57:00;38.00;57.00
34726;DHT22;20951;50.818;4.344;2023-06-24T13:59:44;38.90;56.60
34726;DHT22;20951;50.818;4.344;2023-06-24T14:02:10;38.50;56.20
34726;DHT22;20951;50.818;4.344;2023-06-24T14:04:37;39.00;56.50
34726;DHT22;20951;50.818;4.344;2023-06-24T14:07:05;39.60;55.90
34726;DHT22;20951;50.818;4.344;2023-06-24T14:09:31;38.10;55.80
34726;DHT22;20951;50.818;4.344;2023-06-24T14:11:57;37.10;57.20
34726;DHT22;20951;50.818;4.344;2023-06-24T14:14:30;37.50;57.70
34726;DHT22;20951;50.818;4.344;2023-06-24T14:19:55;36.10;58.80
34726;DHT22;20951;50.818;4.344;2023-06-24T14:22:32;34.40;61.40
34726;DHT22;20951;50.818;4.344;2023-06-24T14:24:58;34.00;61.80
34726;DHT22;20951;50.818;4.344;2023-06-24T14:27:34;33.70;63.00
34726;DHT22;20951;50.818;4.344;2023-06-24T14:30:04;33.30;64.20
34726;DHT22;20951;50.818;4.344;2023-06-24T14:32:35;32.50;64.20
34726;DHT22;20951;50.818;4.344;2023-06-24T14:35:03;32.20;65.80
34726;DHT22;20951;50.818;4.344;2023-06-24T14:37:39;31.80;66.20
34726;DHT22;20951;50.818;4.344;2023-06-24T14:40:18;31.80;67.20
34726;DHT22;20951;50.818;4.344;2023-06-24T14:42:47;31.60;67.40
34726;DHT22;20951;50.818;4.344;2023-06-24T14:45:12;31.40;67.40
34726;DHT22;20951;50.818;4.344;2023-06-24T14:47:49;30.80;67.30
34726;DHT22;20951;50.818;4.344;2023-06-24T14:50:25;30.80;67.20
34726;DHT22;20951;50.818;4.344;2023-06-24T14:52:58;30.70;68.30
34726;DHT22;20951;50.818;4.344;2023-06-24T14:55:34;30.80;67.40
34726;DHT22;20951;50.818;4.344;2023-06-24T14:58:03;30.70;67.30
34726;DHT22;20951;50.818;4.344;2023-06-24T15:00:38;30.60;68.40
34726;DHT22;20951;50.818;4.344;2023-06-24T15:03:03;30.10;67.70
34726;DHT22;20951;50.818;4.344;2023-06-24T15:05:29;29.70;68.40
34726;DHT22;20951;50.818;4.344;2023-06-24T15:08:04;29.70;68.40
34726;DHT22;20951;50.818;4.344;2023-06-24T15:10:32;29.80;68.80
34726;DHT22;20951;50.818;4.344;2023-06-24T15:12:57;29.70;68.10
34726;DHT22;20951;50.818;4.344;2023-06-24T15:15:23;29.60;68.10
34726;DHT22;20951;50.818;4.344;2023-06-24T15:17:49;29.80;67.60
34726;DHT22;20951;50.818;4.344;2023-06-24T15:20:25;29.80;67.60
34726;DHT22;20951;50.818;4.344;2023-06-24T15:22:54;29.80;69.30
34726;DHT22;20951;50.818;4.344;2023-06-24T15:25:20;29.70;69.60
34726;DHT22;20951;50.818;4.344;2023-06-24T15:27:46;29.80;70.50
34726;DHT22;20951;50.818;4.344;2023-06-24T15:30:21;29.60;70.50
34726;DHT22;20951;50.818;4.344;2023-06-24T15:32:57;29.60;71.00
34726;DHT22;20951;50.818;4.344;2023-06-24T15:35:23;29.60;69.30
34726;DHT22;20951;50.818;4.344;2023-06-24T15:37:52;29.70;69.90
34726;DHT22;20951;50.818;4.344;2023-06-24T15:40:28;29.80;70.20
34726;DHT22;20951;50.818;4.344;2023-06-24T15:43:04;29.70;69.20
34726;DHT22;20951;50.818;4.344;2023-06-24T15:45:40;29.80;69.90
34726;DHT22;20951;50.818;4.344;2023-06-24T15:48:15;29.80;69.80
34726;DHT22;20951;50.818;4.344;2023-06-24T15:50:50;29.90;70.00
34726;DHT22;20951;50.818;4.344;2023-06-24T15:53:26;30.00;69.50
34726;DHT22;20951;50.818;4.344;2023-06-24T15:55:51;29.80;68.80